createdAt,value
2018-09-12T00:00:04.814Z,3.83
2018-09-12T00:02:32.955Z,3.98
2018-09-12T00:05:01.139Z,3.12
2018-09-12T00:07:29.282Z,3.02
2018-09-12T00:09:57.451Z,3.75
2018-09-12T00:12:25.607Z,3.60
2018-09-12T00:14:53.767Z,3.63
2018-09-12T00:17:22.000Z,4.17
2018-09-12T00:19:50.175Z,3.42
2018-09-12T00:22:18.516Z,3.60
2018-09-12T00:24:46.674Z,3.87
2018-09-12T00:27:14.835Z,3.77
2018-09-12T00:29:43.004Z,3.70
2018-09-12T00:32:11.179Z,3.40
2018-09-12T00:34:39.336Z,4.40
2018-09-12T00:37:07.458Z,4.13
2018-09-12T00:39:35.608Z,3.40
2018-09-12T00:42:03.771Z,4.00
2018-09-12T00:44:31.923Z,3.85
2018-09-12T00:47:00.088Z,3.30
2018-09-12T00:49:28.234Z,3.22
2018-09-12T00:51:56.375Z,4.00
2018-09-12T00:54:24.527Z,3.45
2018-09-12T00:56:52.662Z,3.15
2018-09-12T00:59:20.813Z,4.03
2018-09-12T01:01:49.740Z,3.20
2018-09-12T01:04:17.880Z,3.42
2018-09-12T01:06:46.077Z,3.80
2018-09-12T01:09:14.205Z,3.80
2018-09-12T01:11:42.340Z,3.15
2018-09-12T01:14:10.554Z,3.47
2018-09-12T01:16:38.701Z,3.58
2018-09-12T01:19:06.835Z,3.45
2018-09-12T01:21:34.982Z,4.15
2018-09-12T01:24:03.110Z,4.10
2018-09-12T01:26:31.293Z,3.35
2018-09-12T01:28:59.418Z,3.15
2018-09-12T01:31:27.558Z,3.70
2018-09-12T01:33:55.748Z,3.30
2018-09-12T01:36:23.943Z,3.67
2018-09-12T01:38:52.091Z,3.47
2018-09-12T01:41:20.274Z,3.22
2018-09-12T01:43:48.423Z,3.17
2018-09-12T01:46:16.566Z,2.77
2018-09-12T01:48:44.706Z,3.35
2018-09-12T01:51:12.859Z,3.77
2018-09-12T01:53:40.998Z,3.50
2018-09-12T01:56:09.168Z,2.87
2018-09-12T01:58:37.302Z,3.10
2018-09-12T02:01:05.474Z,3.67
2018-09-12T02:03:33.612Z,3.60
2018-09-12T02:06:01.748Z,4.03
2018-09-12T02:08:29.903Z,3.40
2018-09-12T02:10:58.027Z,3.52
2018-09-12T02:13:26.175Z,3.47
2018-09-12T02:15:54.319Z,3.90
2018-09-12T02:18:22.469Z,3.87
2018-09-12T02:20:50.624Z,3.65
2018-09-12T02:23:18.759Z,3.40
2018-09-12T02:25:46.919Z,4.25
2018-09-12T02:28:15.169Z,3.15
2018-09-12T02:30:43.326Z,3.62
2018-09-12T02:33:11.613Z,3.30
2018-09-12T02:36:43.074Z,3.40
2018-09-12T02:39:11.253Z,3.47
2018-09-12T02:41:39.424Z,3.00
2018-09-12T02:44:07.624Z,2.98
2018-09-12T02:46:35.792Z,3.45
2018-09-12T02:49:03.987Z,3.22
2018-09-12T02:51:32.211Z,3.00
2018-09-12T02:54:00.338Z,3.20
2018-09-12T02:56:28.497Z,3.42
2018-09-12T02:58:56.634Z,3.60
2018-09-12T03:01:24.773Z,3.08
2018-09-12T03:03:52.897Z,3.30
2018-09-12T03:06:21.004Z,3.05
2018-09-12T03:08:49.143Z,3.67
2018-09-12T03:11:17.267Z,3.37
2018-09-12T03:13:45.404Z,3.20
2018-09-12T03:16:13.549Z,3.45
2018-09-12T03:18:41.720Z,3.00
2018-09-12T03:21:10.033Z,3.90
2018-09-12T03:23:38.207Z,3.10
2018-09-12T03:26:06.418Z,2.85
2018-09-12T03:28:34.630Z,3.40
2018-09-12T03:31:02.805Z,3.08
2018-09-12T03:33:30.994Z,2.40
2018-09-12T03:35:59.184Z,3.65
2018-09-12T03:38:27.371Z,3.75
2018-09-12T03:40:55.544Z,2.80
2018-09-12T03:43:23.732Z,3.45
2018-09-12T03:45:52.432Z,3.08
2018-09-12T03:48:20.604Z,3.20
2018-09-12T03:50:48.777Z,4.10
2018-09-12T03:53:16.940Z,3.10
2018-09-12T03:55:45.114Z,3.45
2018-09-12T03:58:13.280Z,3.92
2018-09-12T04:00:41.556Z,3.10
2018-09-12T04:03:09.769Z,4.37
2018-09-12T04:05:37.934Z,13.78
2018-09-12T04:08:06.154Z,3.95
2018-09-12T04:10:34.307Z,2.62
2018-09-12T04:13:02.474Z,3.20
2018-09-12T04:15:31.739Z,4.20
2018-09-12T04:18:00.135Z,3.60
2018-09-12T04:20:28.311Z,3.47
2018-09-12T04:22:56.464Z,3.25
2018-09-12T04:25:25.250Z,3.20
2018-09-12T04:27:53.392Z,3.10
2018-09-12T04:30:21.507Z,3.98
2018-09-12T04:32:49.640Z,3.20
2018-09-12T04:35:17.841Z,3.40
2018-09-12T04:37:46.033Z,3.52
2018-09-12T04:40:14.251Z,3.50
2018-09-12T04:42:42.465Z,3.72
2018-09-12T04:45:10.633Z,4.15
2018-09-12T04:47:38.832Z,3.45
2018-09-12T04:50:07.079Z,3.10
2018-09-12T04:52:35.281Z,3.35
2018-09-12T04:55:03.576Z,2.80
2018-09-12T04:57:31.772Z,2.95
2018-09-12T04:59:59.992Z,3.58
2018-09-12T05:02:28.186Z,3.30
2018-09-12T05:04:56.346Z,3.20
2018-09-12T05:07:24.488Z,3.62
2018-09-12T05:09:52.628Z,3.80
2018-09-12T05:12:20.787Z,3.40
2018-09-12T05:14:49.073Z,3.50
2018-09-12T05:17:17.227Z,3.85
2018-09-12T05:19:45.373Z,3.37
2018-09-12T05:22:13.572Z,4.08
2018-09-12T05:24:41.729Z,3.87
2018-09-12T05:27:09.981Z,2.92
2018-09-12T05:29:38.125Z,3.62
2018-09-12T05:32:06.302Z,3.30
2018-09-12T05:34:34.494Z,3.72
2018-09-12T05:37:02.703Z,3.60
2018-09-12T05:39:30.919Z,3.77
2018-09-12T05:41:59.097Z,3.15
2018-09-12T05:44:27.291Z,3.30
2018-09-12T05:46:55.413Z,4.00
2018-09-12T05:49:23.590Z,4.15
2018-09-12T05:51:51.897Z,3.72
2018-09-12T05:54:20.110Z,3.83
2018-09-12T05:56:48.310Z,3.33
2018-09-12T05:59:16.524Z,3.40
2018-09-12T06:01:44.710Z,3.98
2018-09-12T06:04:12.900Z,2.85
2018-09-12T06:06:41.124Z,3.87
2018-09-12T06:09:10.357Z,3.75
2018-09-12T06:11:38.562Z,3.77
2018-09-12T06:14:06.976Z,3.65
2018-09-12T06:16:35.119Z,3.65
2018-09-12T06:19:03.336Z,3.90
2018-09-12T06:21:31.568Z,3.47
2018-09-12T06:23:59.787Z,3.87
2018-09-12T06:26:27.991Z,3.37
2018-09-12T06:28:56.216Z,3.57
2018-09-12T06:31:24.409Z,4.03
2018-09-12T06:33:52.701Z,3.60
2018-09-12T06:36:20.910Z,4.80
2018-09-12T06:38:49.120Z,3.60
2018-09-12T06:41:17.336Z,3.90
2018-09-12T06:43:45.696Z,3.30
2018-09-12T06:46:13.902Z,4.10
2018-09-12T06:48:42.057Z,4.43
2018-09-12T06:51:10.377Z,4.10
2018-09-12T06:53:38.580Z,4.50
2018-09-12T06:56:07.698Z,4.07
2018-09-12T06:58:35.890Z,4.10
2018-09-12T07:01:04.170Z,4.50
2018-09-12T07:03:32.320Z,4.10
2018-09-12T07:06:00.499Z,4.83
2018-09-12T07:08:28.676Z,4.23
2018-09-12T07:10:56.889Z,4.80
2018-09-12T07:13:25.157Z,4.70
2018-09-12T07:15:53.330Z,4.83
2018-09-12T07:18:21.523Z,4.87
2018-09-12T07:20:49.763Z,4.33
2018-09-12T07:23:17.975Z,3.83
2018-09-12T07:25:46.171Z,3.73
2018-09-12T07:28:14.330Z,3.93
2018-09-12T07:30:42.533Z,4.07
2018-09-12T07:33:10.723Z,4.00
2018-09-12T07:35:38.895Z,3.23
2018-09-12T07:38:07.016Z,3.83
2018-09-12T07:40:35.169Z,3.50
2018-09-12T07:43:03.316Z,3.43
2018-09-12T07:45:31.473Z,2.97
2018-09-12T07:47:59.622Z,3.23
2018-09-12T07:50:27.759Z,3.20
2018-09-12T07:52:56.051Z,3.10
2018-09-12T07:55:24.200Z,2.70
2018-09-12T07:57:52.338Z,3.00
2018-09-12T08:00:20.592Z,3.07
2018-09-12T08:02:48.700Z,3.17
2018-09-12T08:05:16.857Z,3.10
2018-09-12T08:07:45.003Z,2.50
2018-09-12T08:10:13.143Z,2.50
2018-09-12T08:12:41.290Z,2.90
2018-09-12T08:15:09.534Z,2.57
2018-09-12T08:17:37.724Z,2.60
2018-09-12T08:20:05.895Z,2.50
2018-09-12T08:22:34.038Z,2.77
2018-09-12T08:25:02.191Z,2.50
2018-09-12T08:27:30.355Z,2.63
2018-09-12T08:29:58.545Z,2.10
2018-09-12T08:32:26.744Z,2.40
2018-09-12T08:34:54.895Z,2.70
2018-09-12T08:37:23.063Z,2.00
2018-09-12T08:39:51.215Z,2.77
2018-09-12T08:42:19.422Z,1.80
2018-09-12T08:44:47.515Z,2.00
2018-09-12T08:47:15.711Z,2.00
2018-09-12T08:49:43.873Z,2.20
2018-09-12T08:52:12.075Z,2.17
2018-09-12T08:54:40.284Z,2.50
2018-09-12T08:57:09.179Z,2.33
2018-09-12T08:59:37.308Z,2.17
2018-09-12T09:02:05.446Z,2.33
2018-09-12T09:04:33.648Z,2.23
2018-09-12T09:07:01.892Z,2.60
2018-09-12T09:09:30.067Z,2.17
2018-09-12T09:11:58.248Z,2.30
2018-09-12T09:14:26.380Z,2.20
2018-09-12T09:16:54.514Z,2.00
2018-09-12T09:19:22.729Z,2.40
2018-09-12T09:21:50.899Z,2.60
2018-09-12T09:24:19.042Z,2.60
2018-09-12T09:26:47.215Z,2.10
2018-09-12T09:29:15.381Z,2.30
2018-09-12T09:31:43.513Z,2.47
2018-09-12T09:34:11.770Z,1.87
2018-09-12T09:36:39.911Z,2.40
2018-09-12T09:39:09.729Z,2.07
2018-09-12T09:41:37.880Z,1.70
2018-09-12T09:44:06.082Z,1.83
2018-09-12T09:46:34.216Z,1.80
2018-09-12T09:49:02.379Z,2.10
2018-09-12T09:51:30.574Z,1.50
2018-09-12T09:53:58.803Z,1.40
2018-09-12T09:56:26.953Z,1.33
2018-09-12T09:58:55.167Z,1.40
2018-09-12T10:01:28.688Z,2.00
2018-09-12T10:04:02.163Z,1.90
2018-09-12T10:06:35.711Z,1.63
2018-09-12T10:09:10.832Z,1.90
2018-09-12T10:11:38.986Z,1.90
2018-09-12T10:14:07.138Z,2.07
2018-09-12T10:16:35.287Z,2.00
2018-09-12T10:19:03.518Z,1.70
2018-09-12T10:21:31.693Z,1.57
2018-09-12T10:23:59.915Z,1.67
2018-09-12T10:26:28.071Z,1.50
2018-09-12T10:28:56.212Z,1.70
2018-09-12T10:31:24.385Z,2.30
2018-09-12T10:33:53.730Z,2.00
2018-09-12T10:36:21.900Z,1.90
2018-09-12T10:38:50.074Z,1.90
2018-09-12T10:41:18.298Z,1.87
2018-09-12T10:43:46.462Z,2.30
2018-09-12T10:46:14.603Z,2.37
2018-09-12T10:48:42.786Z,1.67
2018-09-12T10:51:11.042Z,1.70
2018-09-12T10:53:39.224Z,1.70
2018-09-12T10:56:07.351Z,2.20
2018-09-12T10:58:35.479Z,1.80
2018-09-12T11:01:03.619Z,2.50
2018-09-12T11:03:31.778Z,2.30
2018-09-12T11:05:59.971Z,1.90
2018-09-12T11:08:28.209Z,2.80
2018-09-12T11:10:56.352Z,2.00
2018-09-12T11:13:24.498Z,2.40
2018-09-12T11:15:52.667Z,3.30
2018-09-12T11:18:20.819Z,2.53
2018-09-12T11:20:49.024Z,2.50
2018-09-12T11:23:17.184Z,3.03
2018-09-12T11:25:45.330Z,3.13
2018-09-12T11:28:13.489Z,2.83
2018-09-12T11:30:41.667Z,2.50
2018-09-12T11:33:09.893Z,2.83
2018-09-12T11:35:38.016Z,3.67
2018-09-12T11:38:06.219Z,3.07
2018-09-12T11:40:34.378Z,3.20
2018-09-12T11:43:02.528Z,3.63
2018-09-12T11:45:30.715Z,2.10
2018-09-12T11:47:58.868Z,3.40
2018-09-12T11:50:27.040Z,3.80
2018-09-12T11:52:55.203Z,3.10
2018-09-12T11:55:23.427Z,3.27
2018-09-12T11:57:51.491Z,3.10
2018-09-12T12:00:19.639Z,3.53
2018-09-12T12:02:47.872Z,3.13
2018-09-12T12:05:16.080Z,3.33
2018-09-12T12:07:44.247Z,3.90
2018-09-12T12:10:12.983Z,3.80
2018-09-12T12:12:41.206Z,4.20
2018-09-12T12:15:09.401Z,3.53
2018-09-12T12:17:37.868Z,3.90
2018-09-12T12:20:06.146Z,3.10
2018-09-12T12:22:34.359Z,3.00
2018-09-12T12:25:02.512Z,2.83
2018-09-12T12:27:30.711Z,2.60
2018-09-12T12:29:58.851Z,3.63
2018-09-12T12:32:26.975Z,3.00
2018-09-12T12:34:55.111Z,2.77
2018-09-12T12:37:23.218Z,3.63
2018-09-12T12:39:51.371Z,3.50
2018-09-12T12:42:19.521Z,2.70
2018-09-12T12:44:47.655Z,3.17
2018-09-12T12:47:15.780Z,2.90
2018-09-12T12:49:43.924Z,2.93
2018-09-12T12:52:12.167Z,3.17
2018-09-12T12:54:40.665Z,2.80
2018-09-12T12:57:08.835Z,2.57
2018-09-12T12:59:36.982Z,3.13
2018-09-12T13:02:05.143Z,2.93
2018-09-12T13:04:33.291Z,3.20
2018-09-12T13:07:01.461Z,3.33
2018-09-12T13:09:29.603Z,3.00
2018-09-12T13:11:57.755Z,2.63
2018-09-12T13:14:25.907Z,2.67
2018-09-12T13:16:54.065Z,2.87
2018-09-12T13:19:22.203Z,3.40
2018-09-12T13:21:50.594Z,2.40
2018-09-12T13:24:18.514Z,2.70
2018-09-12T13:26:46.783Z,3.57
2018-09-12T13:29:14.931Z,3.23
2018-09-12T13:31:43.080Z,2.97
2018-09-12T13:34:11.301Z,3.27
2018-09-12T13:36:39.403Z,3.60
2018-09-12T13:39:10.441Z,3.00
2018-09-12T13:41:38.580Z,2.43
2018-09-12T13:44:06.767Z,3.63
2018-09-12T13:46:35.277Z,3.47
2018-09-12T13:49:04.056Z,4.30
2018-09-12T13:51:32.196Z,3.93
2018-09-12T13:54:00.344Z,4.70
2018-09-12T13:56:29.533Z,4.43
2018-09-12T13:58:57.683Z,4.43
2018-09-12T14:01:25.907Z,4.10
2018-09-12T14:03:54.075Z,4.17
2018-09-12T14:06:22.207Z,4.00
2018-09-12T14:08:50.365Z,3.90
2018-09-12T14:11:18.525Z,4.33
2018-09-12T14:13:46.919Z,4.10
2018-09-12T14:16:15.064Z,4.70
2018-09-12T14:18:43.217Z,3.73
2018-09-12T14:21:11.635Z,3.60
2018-09-12T14:23:40.520Z,3.40
2018-09-12T14:26:09.173Z,3.97
2018-09-12T14:28:37.374Z,3.50
2018-09-12T14:31:05.503Z,3.57
2018-09-12T14:33:33.634Z,5.03
2018-09-12T14:36:01.776Z,6.90
2018-09-12T14:38:29.918Z,4.60
2018-09-12T14:40:58.048Z,4.13
2018-09-12T14:43:26.187Z,3.97
2018-09-12T14:45:54.351Z,3.60
2018-09-12T14:48:22.490Z,3.70
2018-09-12T14:50:50.660Z,4.20
2018-09-12T14:53:18.747Z,3.87
2018-09-12T14:55:46.869Z,3.70
2018-09-12T14:58:15.016Z,3.67
2018-09-12T15:00:43.162Z,4.00
2018-09-12T15:03:11.379Z,3.90
2018-09-12T15:05:39.566Z,4.10
2018-09-12T15:08:07.732Z,3.50
2018-09-12T15:10:35.906Z,4.50
2018-09-12T15:13:03.999Z,3.80
2018-09-12T15:15:32.149Z,3.63
2018-09-12T15:18:00.307Z,4.00
2018-09-12T15:20:28.451Z,3.80
2018-09-12T15:22:56.574Z,3.20
2018-09-12T15:25:24.895Z,4.37
2018-09-12T15:27:53.043Z,4.57
2018-09-12T15:30:21.187Z,4.20
2018-09-12T15:32:49.343Z,3.97
2018-09-12T15:35:17.508Z,3.80
2018-09-12T15:37:45.677Z,3.53
2018-09-12T15:40:13.824Z,4.60
2018-09-12T15:42:41.968Z,4.23
2018-09-12T15:45:10.111Z,4.13
2018-09-12T15:47:38.211Z,4.07
2018-09-12T15:50:06.365Z,4.47
2018-09-12T15:52:34.498Z,4.43
2018-09-12T15:55:02.659Z,3.97
2018-09-12T15:57:30.815Z,4.87
2018-09-12T15:59:58.967Z,4.57
2018-09-12T16:02:27.257Z,4.73
2018-09-12T16:04:55.472Z,3.90
2018-09-12T16:07:23.620Z,3.80
2018-09-12T16:09:51.758Z,4.00
2018-09-12T16:12:19.899Z,4.33
2018-09-12T16:14:48.051Z,4.83
2018-09-12T16:17:16.196Z,4.60
2018-09-12T16:19:45.363Z,4.33
2018-09-12T16:22:13.511Z,3.97
2018-09-12T16:24:41.637Z,4.30
2018-09-12T16:27:09.795Z,4.10
2018-09-12T16:29:37.957Z,4.73
2018-09-12T16:32:06.083Z,5.47
2018-09-12T16:34:34.303Z,5.67
2018-09-12T16:37:02.902Z,5.90
2018-09-12T16:39:31.045Z,5.97
2018-09-12T16:41:59.187Z,6.90
2018-09-12T16:44:27.308Z,7.07
2018-09-12T16:46:55.427Z,7.23
2018-09-12T16:49:23.565Z,7.40
2018-09-12T16:51:51.963Z,7.20
2018-09-12T16:54:20.118Z,8.50
2018-09-12T16:56:48.280Z,7.17
2018-09-12T16:59:16.375Z,7.83
2018-09-12T17:01:44.598Z,10.30
2018-09-12T17:04:12.867Z,8.50
2018-09-12T17:06:41.006Z,8.60
2018-09-12T17:09:10.291Z,10.10
2018-09-12T17:11:38.607Z,8.10
2018-09-12T17:14:06.853Z,11.60
2018-09-12T17:16:34.939Z,11.27
2018-09-12T17:19:03.120Z,10.77
2018-09-12T17:21:32.162Z,9.37
2018-09-12T17:24:00.414Z,10.10
2018-09-12T17:26:28.577Z,10.60
2018-09-12T17:28:56.755Z,10.00
2018-09-12T17:31:25.821Z,11.33
2018-09-12T17:33:53.998Z,9.33
2018-09-12T17:36:25.111Z,9.90
2018-09-12T17:38:53.325Z,10.87
2018-09-12T17:41:21.570Z,10.33
2018-09-12T17:43:49.746Z,9.90
2018-09-12T17:46:18.307Z,10.77
2018-09-12T17:48:46.744Z,11.70
2018-09-12T17:51:14.900Z,12.40
2018-09-12T17:53:43.224Z,12.90
2018-09-12T17:56:11.498Z,29.50
2018-09-12T17:58:39.874Z,12.83
2018-09-12T18:01:08.440Z,39.17
2018-09-12T18:03:36.724Z,20.20
2018-09-12T18:06:04.923Z,26.67
2018-09-12T18:08:33.163Z,24.30
2018-09-12T18:11:01.419Z,125.10
2018-09-12T18:13:29.491Z,19.87
2018-09-12T18:15:58.032Z,23.87
2018-09-12T18:18:26.184Z,26.83
2018-09-12T18:20:54.982Z,16.20
2018-09-12T18:23:23.143Z,16.40
2018-09-12T18:25:51.281Z,18.00
2018-09-12T18:28:19.440Z,18.83
2018-09-12T18:30:48.920Z,19.20
2018-09-12T18:33:17.065Z,18.87
2018-09-12T18:35:45.219Z,18.10
2018-09-12T18:38:13.386Z,18.80
2018-09-12T18:40:41.559Z,18.87
2018-09-12T18:43:09.813Z,17.73
2018-09-12T18:45:37.967Z,17.37
2018-09-12T18:48:06.291Z,17.53
2018-09-12T18:50:34.523Z,18.40
2018-09-12T18:53:02.642Z,17.07
2018-09-12T18:55:30.886Z,17.50
2018-09-12T18:57:59.264Z,16.03
2018-09-12T19:00:27.447Z,18.47
2018-09-12T19:02:55.622Z,16.97
2018-09-12T19:05:23.775Z,18.80
2018-09-12T19:07:51.909Z,16.07
2018-09-12T19:10:20.089Z,14.20
2018-09-12T19:12:48.269Z,15.67
2018-09-12T19:15:16.391Z,15.97
2018-09-12T19:17:44.519Z,17.27
2018-09-12T19:20:12.701Z,15.67
2018-09-12T19:22:40.841Z,15.53
2018-09-12T19:25:08.970Z,16.03
2018-09-12T19:27:37.180Z,16.07
2018-09-12T19:30:05.379Z,16.40
2018-09-12T19:32:33.549Z,16.50
2018-09-12T19:35:01.691Z,14.50
2018-09-12T19:37:29.892Z,14.40
2018-09-12T19:39:58.088Z,14.93
2018-09-12T19:42:26.260Z,14.47
2018-09-12T19:44:54.402Z,16.30
2018-09-12T19:47:22.543Z,16.23
2018-09-12T19:49:50.927Z,15.90
2018-09-12T19:52:19.351Z,15.17
2018-09-12T19:54:48.094Z,15.10
2018-09-12T19:57:16.155Z,14.40
2018-09-12T19:59:44.299Z,14.00
2018-09-12T20:02:13.094Z,14.80
2018-09-12T20:04:41.227Z,13.07
2018-09-12T20:07:09.385Z,16.60
2018-09-12T20:09:37.523Z,16.17
2018-09-12T20:12:05.659Z,18.50
2018-09-12T20:14:33.802Z,20.10
2018-09-12T20:17:01.937Z,17.37
2018-09-12T20:19:30.122Z,17.17
2018-09-12T20:21:58.280Z,17.40
2018-09-12T20:24:26.471Z,18.00
2018-09-12T20:26:54.621Z,18.37
2018-09-12T20:29:22.763Z,21.37
2018-09-12T20:31:50.895Z,20.30
2018-09-12T20:34:19.047Z,21.73
2018-09-12T20:36:47.183Z,26.50
2018-09-12T20:39:15.366Z,28.80
2018-09-12T20:41:43.517Z,29.67
2018-09-12T20:44:11.691Z,31.80
2018-09-12T20:46:39.828Z,30.17
2018-09-12T20:49:09.039Z,29.37
2018-09-12T20:51:37.200Z,32.67
2018-09-12T20:54:07.435Z,31.13
2018-09-12T20:56:35.583Z,31.07
2018-09-12T20:59:03.756Z,32.63
2018-09-12T21:01:31.873Z,29.67
2018-09-12T21:04:00.014Z,28.53
2018-09-12T21:06:28.162Z,29.07
2018-09-12T21:08:56.311Z,30.93
2018-09-12T21:11:24.457Z,31.90
2018-09-12T21:13:52.592Z,31.60
2018-09-12T21:16:20.730Z,29.73
2018-09-12T21:18:48.876Z,26.80
2018-09-12T21:21:17.083Z,28.70
2018-09-12T21:23:45.239Z,28.00
2018-09-12T21:26:13.419Z,27.57
2018-09-12T21:28:41.666Z,30.13
2018-09-12T21:31:09.808Z,28.10
2018-09-12T21:33:37.967Z,28.53
2018-09-12T21:36:06.130Z,28.10
2018-09-12T21:38:34.260Z,28.07
2018-09-12T21:41:02.399Z,27.00
2018-09-12T21:43:30.549Z,26.27
2018-09-12T21:45:58.778Z,27.53
2018-09-12T21:48:27.009Z,26.83
2018-09-12T21:50:55.143Z,28.00
2018-09-12T21:53:23.322Z,26.67
2018-09-12T21:55:51.459Z,26.10
2018-09-12T21:58:19.636Z,26.60
2018-09-12T22:00:47.814Z,27.20
2018-09-12T22:03:15.961Z,26.10
2018-09-12T22:05:44.372Z,24.40
2018-09-12T22:08:12.685Z,25.80
2018-09-12T22:10:40.885Z,28.97
2018-09-12T22:13:09.078Z,28.57
2018-09-12T22:15:37.211Z,26.27
2018-09-12T22:18:05.358Z,26.67
2018-09-12T22:20:33.497Z,25.53
2018-09-12T22:23:01.638Z,24.63
2018-09-12T22:25:29.861Z,28.20
2018-09-12T22:27:58.015Z,26.00
2018-09-12T22:30:26.206Z,26.80
2018-09-12T22:32:54.395Z,27.30
2018-09-12T22:35:22.552Z,27.20
2018-09-12T22:37:50.699Z,26.50
2018-09-12T22:40:18.853Z,27.33
2018-09-12T22:42:46.998Z,27.97
2018-09-12T22:45:15.151Z,26.17
2018-09-12T22:47:43.299Z,24.50
2018-09-12T22:50:11.470Z,26.07
2018-09-12T22:52:39.643Z,24.50
2018-09-12T22:55:07.757Z,26.80
2018-09-12T22:57:35.901Z,25.37
2018-09-12T23:00:04.066Z,25.30
2018-09-12T23:02:32.211Z,26.77
2018-09-12T23:05:00.356Z,27.30
2018-09-12T23:07:28.494Z,29.03
2018-09-12T23:09:56.632Z,28.50
2018-09-12T23:12:24.806Z,30.77
2018-09-12T23:14:52.963Z,29.00
2018-09-12T23:17:21.275Z,29.00
2018-09-12T23:19:49.414Z,25.30
2018-09-12T23:22:17.575Z,26.80
2018-09-12T23:24:45.719Z,26.57
2018-09-12T23:27:13.874Z,26.60
2018-09-12T23:29:41.999Z,25.73
2018-09-12T23:32:10.147Z,25.23
2018-09-12T23:34:38.319Z,26.17
2018-09-12T23:37:06.466Z,25.13
2018-09-12T23:39:34.618Z,24.70
2018-09-12T23:42:02.760Z,26.03
2018-09-12T23:44:30.907Z,24.33
2018-09-12T23:46:59.054Z,27.33
2018-09-12T23:49:27.198Z,25.70
2018-09-12T23:51:55.351Z,26.83
2018-09-12T23:54:23.490Z,28.17
2018-09-12T23:56:51.639Z,25.03
2018-09-12T23:59:19.779Z,25.53
